Time;durP1;ratioP1;P1;durP2;ratioP2;P2;SDS_P1;SDS_P2;PMS_P1;PMS_P2;Temp;Humidity;BMP_temperature;BMP_pressure;BME280_temperature;BME280_humidity;BME280_pressure;Samples;Min_cycle;Max_cycle;Signal;HPM_P1;HPM_P2
2022/10/18 00:00:44;;;;;;;39.50;24.70;;;;;;;17.14;100.00;101069.88;638068;1313;139523;-79
2022/10/18 00:16:13;;;;;;;43.20;24.00;;;;;;;16.90;100.00;101063.71;637902;1313;139977;-79
2022/10/18 00:31:19;;;;;;;41.20;23.70;;;;;;;16.78;100.00;101053.94;638311;1312;141268;-79
2022/10/18 00:46:25;;;;;;;36.50;22.70;;;;;;;16.62;100.00;101060.41;637673;1313;139381;-78
2022/10/18 01:01:29;;;;;;;41.30;23.70;;;;;;;16.43;100.00;101070.07;637549;1313;139858;-78
2022/10/18 01:16:42;;;;;;;38.70;23.10;;;;;;;16.26;100.00;101062.52;637514;1301;140799;-79
2022/10/18 01:32:03;;;;;;;43.10;24.60;;;;;;;16.15;100.00;101052.16;638084;1308;140162;-78
2022/10/18 01:47:11;;;;;;;60.40;29.90;;;;;;;16.06;100.00;101041.90;637534;1313;140455;-79
2022/10/18 02:02:33;;;;;;;47.70;26.70;;;;;;;15.94;100.00;101039.61;637143;1306;139705;-79
2022/10/18 02:17:39;;;;;;;45.10;25.20;;;;;;;15.72;100.00;101039.80;638027;1313;139144;-80
2022/10/18 02:32:53;;;;;;;45.20;25.90;;;;;;;15.68;100.00;101042.30;637489;1313;139087;-81
2022/10/18 02:47:56;;;;;;;53.70;31.20;;;;;;;15.56;100.00;101046.32;637823;1313;140733;-79
2022/10/18 03:03:00;;;;;;;53.80;28.50;;;;;;;15.46;100.00;101047.24;637667;1300;139660;-79
2022/10/18 03:18:03;;;;;;;67.60;31.30;;;;;;;15.22;100.00;101045.27;638775;1313;143375;-79
2022/10/18 03:33:06;;;;;;;37.20;23.00;;;;;;;15.11;100.00;101062.20;638004;1313;139655;-80
2022/10/18 03:48:09;;;;;;;49.30;25.80;;;;;;;15.05;100.00;101077.41;642479;1313;139429;-79
2022/10/18 04:03:12;;;;;;;46.00;24.30;;;;;;;14.99;100.00;101098.56;639452;1313;139637;-79
2022/10/18 04:18:16;;;;;;;57.90;32.00;;;;;;;15.08;100.00;101094.89;639207;1313;139208;-79
2022/10/18 04:33:19;;;;;;;57.70;33.70;;;;;;;15.13;100.00;101100.60;646026;1304;139083;-79
2022/10/18 04:48:22;;;;;;;50.40;27.40;;;;;;;15.26;100.00;101106.78;646020;1306;139733;-79
2022/10/18 05:03:25;;;;;;;62.70;33.10;;;;;;;15.34;100.00;101097.88;639525;1297;139014;-79
2022/10/18 05:18:29;;;;;;;142.00;71.40;;;;;;;15.35;100.00;101100.63;637918;1299;142843;-79
2022/10/18 05:33:34;;;;;;;66.10;36.50;;;;;;;15.44;100.00;101101.02;636745;1315;139330;-79
2022/10/18 05:48:38;;;;;;;55.10;33.00;;;;;;;15.52;100.00;101097.44;636751;1310;140308;-80
2022/10/18 06:03:41;;;;;;;50.20;28.80;;;;;;;15.68;100.00;101128.02;636743;1310;139672;-80
2022/10/18 06:18:52;;;;;;;59.50;34.40;;;;;;;15.65;100.00;101145.06;637335;1314;139990;-80
2022/10/18 06:33:57;;;;;;;68.50;34.60;;;;;;;15.60;100.00;101146.00;637992;1302;140275;-80
2022/10/18 06:49:00;;;;;;;55.90;30.50;;;;;;;15.78;100.00;101135.73;639394;1307;139560;-81
2022/10/18 07:04:04;;;;;;;56.40;32.00;;;;;;;16.16;100.00;101154.04;637897;1313;140102;-81
2022/10/18 07:19:07;;;;;;;61.80;33.00;;;;;;;16.26;100.00;101168.23;636983;1306;139142;-81
2022/10/18 07:34:12;;;;;;;54.60;31.70;;;;;;;16.64;100.00;101169.64;644405;1313;139653;-80
2022/10/18 07:49:15;;;;;;;40.50;24.70;;;;;;;17.21;100.00;101179.63;638200;1294;139006;-81
2022/10/18 08:04:19;;;;;;;42.20;25.00;;;;;;;17.84;100.00;101178.12;638352;1306;140086;-79
2022/10/18 08:19:22;;;;;;;38.70;22.30;;;;;;;18.05;100.00;101182.05;637263;1313;139902;-79
2022/10/18 08:34:26;;;;;;;33.60;20.00;;;;;;;18.04;100.00;101184.59;639349;1302;139156;-79
2022/10/18 08:49:43;;;;;;;27.30;16.60;;;;;;;18.04;100.00;101168.76;638675;1309;139176;-79
2022/10/18 09:05:05;;;;;;;24.90;16.30;;;;;;;18.43;100.00;101149.66;638297;1308;140707;-79
2022/10/18 09:20:24;;;;;;;24.70;16.00;;;;;;;18.41;100.00;101136.21;638025;1294;140280;-80
2022/10/18 09:36:04;;;;;;;30.50;17.10;;;;;;;18.57;100.00;101126.04;638700;1301;141023;-80
2022/10/18 09:51:16;;;;;;;25.30;14.90;;;;;;;18.62;100.00;101112.23;638039;1314;139447;-80
2022/10/18 10:06:37;;;;;;;23.90;14.10;;;;;;;18.49;100.00;101115.70;637326;1296;140598;-80
2022/10/18 10:21:41;;;;;;;23.80;15.60;;;;;;;18.35;100.00;101102.65;638575;1311;141088;-81
2022/10/18 10:36:48;;;;;;;20.00;13.10;;;;;;;18.22;100.00;101101.27;638739;1300;140828;-81
2022/10/18 10:52:01;;;;;;;18.40;10.40;;;;;;;18.11;100.00;101108.65;638102;1308;140108;-80
2022/10/18 11:07:35;;;;;;;19.70;12.10;;;;;;;18.14;100.00;101102.67;638362;1307;139592;-80
2022/10/18 11:23:18;;;;;;;21.10;10.50;;;;;;;17.98;100.00;101095.29;636551;1300;1199826;-82
2022/10/18 11:38:34;;;;;;;19.60;10.70;;;;;;;17.88;100.00;101086.13;636338;1307;141220;-82
2022/10/18 11:53:47;;;;;;;23.80;12.00;;;;;;;17.76;100.00;101066.27;637669;1314;139783;-83
2022/10/18 12:09:00;;;;;;;17.10;8.70;;;;;;;17.67;100.00;101038.73;637827;1301;139874;-82
2022/10/18 12:24:10;;;;;;;15.50;9.30;;;;;;;17.62;100.00;101031.03;638377;1301;139660;-83
2022/10/18 12:39:25;;;;;;;18.90;12.00;;;;;;;17.62;100.00;101018.06;639578;1300;139011;-84
2022/10/18 12:55:25;;;;;;;17.50;11.20;;;;;;;17.41;100.00;101003.11;640984;1298;140314;-82
2022/10/18 13:10:34;;;;;;;18.60;11.50;;;;;;;17.52;100.00;100991.89;639962;1297;140254;-82
2022/10/18 13:26:16;;;;;;;22.20;12.80;;;;;;;17.33;100.00;100979.92;639013;1308;140033;-82
2022/10/18 13:41:29;;;;;;;22.60;12.60;;;;;;;17.14;100.00;100957.86;638792;1295;140372;-83
2022/10/18 13:57:06;;;;;;;41.10;22.60;;;;;;;17.03;100.00;100954.63;639339;1307;139573;-83
2022/10/18 14:12:22;;;;;;;32.70;16.10;;;;;;;16.87;100.00;100942.15;640688;1295;140007;-82
2022/10/18 14:27:31;;;;;;;20.60;14.00;;;;;;;16.71;100.00;100930.52;640654;1300;140468;-83
2022/10/18 14:42:36;;;;;;;28.00;17.40;;;;;;;16.63;100.00;100910.69;641875;1301;139818;-83
2022/10/18 14:57:40;;;;;;;25.30;17.40;;;;;;;16.51;100.00;100904.52;639378;1313;139391;-82
2022/10/18 15:12:45;;;;;;;98.70;61.80;;;;;;;16.39;100.00;100899.89;638007;1294;140575;-82
2022/10/18 15:28:30;;;;;;;46.70;28.80;;;;;;;16.35;100.00;100873.17;638809;1310;139475;-82
2022/10/18 15:43:36;;;;;;;54.20;32.40;;;;;;;16.33;100.00;100877.23;641604;1298;140803;-83
2022/10/18 15:58:45;;;;;;;53.40;32.90;;;;;;;16.26;100.00;100868.27;642180;1313;140789;-83
2022/10/18 16:13:50;;;;;;;;;;;;;;;16.21;100.00;100863.88;641007;1313;140545;-81
2022/10/18 16:29:00;;;;;;;98.70;50.80;;;;;;;16.04;100.00;100877.85;638024;1313;126130;-82
2022/10/18 16:44:04;;;;;;;57.60;37.60;;;;;;;15.87;100.00;100887.04;638497;1316;139535;-82
2022/10/18 16:59:22;;;;;;;65.70;41.00;;;;;;;15.73;100.00;100887.30;639597;1306;139999;-82
2022/10/18 17:14:26;;;;;;;85.00;45.20;;;;;;;15.60;100.00;100902.35;637988;1305;139438;-82
2022/10/18 17:29:32;;;;;;;99.30;38.20;;;;;;;15.55;100.00;100901.60;638439;1302;140136;-81
2022/10/18 17:44:37;;;;;;;195.40;88.90;;;;;;;15.50;100.00;100899.65;640341;1299;141289;-81
2022/10/18 17:59:41;;;;;;;74.90;43.60;;;;;;;15.40;100.00;100905.42;638923;1300;142048;-82
2022/10/18 18:14:46;;;;;;;62.10;33.80;;;;;;;15.24;100.00;100911.22;638301;1300;142079;-81
2022/10/18 18:29:50;;;;;;;61.30;34.80;;;;;;;15.22;100.00;100922.98;638217;1299;141256;-82
2022/10/18 18:44:55;;;;;;;64.20;37.80;;;;;;;15.19;100.00;100932.78;643157;1292;139657;-83
2022/10/18 18:59:59;;;;;;;62.90;35.00;;;;;;;15.22;100.00;100916.66;638821;1298;140343;-82
2022/10/18 19:15:05;;;;;;;68.00;35.30;;;;;;;15.18;100.00;100904.77;638787;1299;139452;-82
2022/10/18 19:30:10;;;;;;;36.10;22.50;;;;;;;15.09;100.00;100909.52;638168;1300;140433;-82
2022/10/18 19:45:15;;;;;;;41.50;23.90;;;;;;;14.93;100.00;100911.20;638786;1302;139520;-82
2022/10/18 20:00:19;;;;;;;32.50;17.20;;;;;;;14.62;100.00;100915.20;640743;1301;140550;-83
2022/10/18 20:15:22;;;;;;;21.40;10.10;;;;;;;14.25;100.00;100912.61;639866;1307;139413;-81
2022/10/18 20:30:25;;;;;;;13.10;6.90;;;;;;;13.88;100.00;100915.55;638527;1301;140066;-82
2022/10/18 20:45:29;;;;;;;17.70;6.60;;;;;;;13.55;100.00;100912.73;637942;1303;140358;-81
2022/10/18 21:00:33;;;;;;;12.50;6.30;;;;;;;13.18;100.00;100908.30;638091;1294;139562;-81
2022/10/18 21:15:38;;;;;;;17.20;7.90;;;;;;;12.81;100.00;100901.55;637896;1293;139927;-81
2022/10/18 21:30:41;;;;;;;21.00;9.80;;;;;;;12.56;100.00;100878.64;637370;1301;139633;-81
2022/10/18 21:45:44;;;;;;;21.10;9.30;;;;;;;12.42;100.00;100883.11;637717;1300;139264;-81
2022/10/18 22:00:47;;;;;;;19.50;7.30;;;;;;;12.48;100.00;100877.55;638208;1294;140083;-82
2022/10/18 22:15:51;;;;;;;15.20;7.50;;;;;;;12.55;100.00;100861.38;638732;1299;139327;-81
2022/10/18 22:30:54;;;;;;;17.10;7.30;;;;;;;12.59;100.00;100843.91;639991;1294;139609;-81
2022/10/18 22:46:06;;;;;;;16.70;7.70;;;;;;;12.71;100.00;100829.24;639234;1307;140891;-81
2022/10/18 23:01:12;;;;;;;16.70;7.90;;;;;;;12.68;100.00;100819.80;638803;1294;140599;-81
2022/10/18 23:16:16;;;;;;;22.40;7.60;;;;;;;12.74;100.00;100812.80;637465;1295;1090458;-81
2022/10/18 23:31:25;;;;;;;23.50;8.10;;;;;;;12.72;100.00;100797.02;639290;1294;140480;-81
2022/10/18 23:46:28;;;;;;;17.70;7.50;;;;;;;12.58;100.00;100792.48;637610;1300;139380;-80
